Time;durP1;ratioP1;P1;durP2;ratioP2;P2;SDS_P1;SDS_P2;PMS_P1;PMS_P2;Temp;Humidity;BMP_temperature;BMP_pressure;BME280_temperature;BME280_humidity;BME280_pressure;Samples;Min_cycle;Max_cycle;Signal;HPM_P1;HPM_P2
2022/12/02 00:01:46;;;;;;;36.70;15.45;;;;;;;;;;5050405;28;20052;-84
2022/12/02 00:04:21;;;;;;;30.98;14.93;;;;;;;;;;5055926;28;20550;-83
2022/12/02 00:06:47;;;;;;;30.75;14.73;;;;;;;;;;5037699;28;20497;-84
2022/12/02 00:09:21;;;;;;;29.83;15.40;;;;;;;;;;5035956;28;20032;-84
2022/12/02 00:11:47;;;;;;;36.13;15.40;;;;;;;;;;5040678;28;20048;-84
2022/12/02 00:14:24;;;;;;;33.85;14.57;;;;;;;;;;5056422;28;20021;-84
2022/12/02 00:16:50;;;;;;;31.83;14.82;;;;;;;;;;5056431;28;20387;-83
2022/12/02 00:19:16;;;;;;;29.23;15.02;;;;;;;;;;5037595;28;20014;-84
2022/12/02 00:21:42;;;;;;;34.30;15.30;;;;;;;;;;5055181;28;20025;-84
2022/12/02 00:24:08;;;;;;;32.92;16.58;;;;;;;;;;5057637;28;20111;-84
2022/12/02 00:26:34;;;;;;;31.88;14.68;;;;;;;;;;5069115;28;20029;-84
2022/12/02 00:29:01;;;;;;;33.92;17.08;;;;;;;;;;5067835;28;20101;-84
2022/12/02 00:31:27;;;;;;;35.50;15.25;;;;;;;;;;5069832;28;20483;-84
2022/12/02 00:33:55;;;;;;;36.85;15.90;;;;;;;;;;5059227;28;20388;-84
2022/12/02 00:36:21;;;;;;;38.47;17.58;;;;;;;;;;5049211;28;20142;-84
2022/12/02 00:38:47;;;;;;;34.45;14.25;;;;;;;;;;5051543;28;20021;-84
2022/12/02 00:41:13;;;;;;;31.88;15.45;;;;;;;;;;5070481;28;20032;-84
2022/12/02 00:46:36;;;;;;;34.80;15.57;;;;;;;;;;5050131;28;20045;-84
2022/12/02 00:49:09;;;;;;;32.58;15.45;;;;;;;;;;5053103;28;20028;-83
2022/12/02 00:51:36;;;;;;;29.00;14.30;;;;;;;;;;5061692;28;20054;-83
2022/12/02 00:54:02;;;;;;;34.70;13.90;;;;;;;;;;5062209;28;20115;-83
2022/12/02 00:56:28;;;;;;;28.13;14.18;;;;;;;;;;5063218;28;20045;-83
2022/12/02 00:58:56;;;;;;;34.30;15.00;;;;;;;;;;5060262;28;20331;-83
2022/12/02 01:01:22;;;;;;;31.52;15.00;;;;;;;;;;5062427;28;20025;-83
2022/12/02 01:03:48;;;;;;;33.10;14.73;;;;;;;;;;5063097;28;20025;-83
2022/12/02 01:06:14;;;;;;;34.40;15.75;;;;;;;;;;5064186;28;20029;-83
2022/12/02 01:08:40;;;;;;;34.83;15.93;;;;;;;;;;5044639;28;20030;-83
2022/12/02 01:11:07;;;;;;;30.00;15.57;;;;;;;;;;5042903;28;20026;-83
2022/12/02 01:13:33;;;;;;;27.67;14.68;;;;;;;;;;5045284;28;20026;-83
2022/12/02 01:15:59;;;;;;;36.05;14.75;;;;;;;;;;5051029;28;20032;-83
2022/12/02 01:18:25;;;;;;;38.15;17.20;;;;;;;;;;5054511;28;20048;-83
2022/12/02 01:20:51;;;;;;;34.42;16.13;;;;;;;;;;5042732;28;20032;-83
2022/12/02 01:23:17;;;;;;;32.60;15.93;;;;;;;;;;5052245;28;20086;-82
2022/12/02 01:25:43;;;;;;;31.20;14.55;;;;;;;;;;5043738;28;20045;-83
2022/12/02 01:28:09;;;;;;;33.33;15.93;;;;;;;;;;5058609;28;20112;-83
2022/12/02 01:30:35;;;;;;;29.92;14.20;;;;;;;;;;5054873;28;20048;-83
2022/12/02 01:33:01;;;;;;;29.92;15.35;;;;;;;;;;5049813;28;20459;-83
2022/12/02 01:35:27;;;;;;;31.70;15.73;;;;;;;;;;5038411;28;20053;-83
2022/12/02 01:37:53;;;;;;;34.30;15.93;;;;;;;;;;5049710;28;20561;-83
2022/12/02 01:40:20;;;;;;;30.83;15.93;;;;;;;;;;5062299;28;20025;-83
2022/12/02 01:42:46;;;;;;;32.28;16.50;;;;;;;;;;5055888;28;20097;-83
2022/12/02 01:45:12;;;;;;;32.78;14.73;;;;;;;;;;5061291;28;20045;-83
2022/12/02 01:47:39;;;;;;;32.65;15.93;;;;;;;;;;5044940;28;20043;-83
2022/12/02 01:50:06;;;;;;;31.08;15.00;;;;;;;;;;5042268;28;20037;-83
2022/12/02 01:52:33;;;;;;;32.53;15.43;;;;;;;;;;5052373;28;20039;-83
2022/12/02 01:54:59;;;;;;;33.30;14.68;;;;;;;;;;5048003;28;20096;-83
2022/12/02 01:57:26;;;;;;;29.17;14.18;;;;;;;;;;5048106;28;20071;-83
2022/12/02 01:59:52;;;;;;;31.98;15.50;;;;;;;;;;5042315;28;20085;-83
2022/12/02 02:02:24;;;;;;;32.10;14.63;;;;;;;;;;5045547;28;20051;-83
2022/12/02 02:04:50;;;;;;;36.73;16.10;;;;;;;;;;5061585;28;20025;-83
2022/12/02 02:07:16;;;;;;;31.85;15.38;;;;;;;;;;5060716;28;20105;-83
2022/12/02 02:09:42;;;;;;;35.97;16.13;;;;;;;;;;5054039;28;20029;-83
2022/12/02 02:12:08;;;;;;;37.63;15.80;;;;;;;;;;5050029;28;20066;-83
2022/12/02 02:14:34;;;;;;;30.95;15.73;;;;;;;;;;5042420;28;20050;-83
2022/12/02 02:17:00;;;;;;;34.45;15.60;;;;;;;;;;5044065;28;20022;-83
2022/12/02 02:19:26;;;;;;;34.95;15.70;;;;;;;;;;5043439;28;20029;-83
2022/12/02 02:21:53;;;;;;;34.63;17.13;;;;;;;;;;5040817;28;20399;-83
2022/12/02 02:24:19;;;;;;;27.90;14.25;;;;;;;;;;5043524;28;20021;-83
2022/12/02 02:26:45;;;;;;;34.05;16.80;;;;;;;;;;5041424;28;20068;-83
2022/12/02 02:29:11;;;;;;;31.08;15.77;;;;;;;;;;5040116;28;20053;-83
2022/12/02 02:31:37;;;;;;;36.05;16.50;;;;;;;;;;5050540;28;20033;-83
2022/12/02 02:34:03;;;;;;;30.52;14.63;;;;;;;;;;5053458;28;20025;-83
2022/12/02 02:36:30;;;;;;;29.98;14.02;;;;;;;;;;5040219;28;20301;-83
2022/12/02 02:38:56;;;;;;;33.20;14.73;;;;;;;;;;5040379;28;20439;-83
2022/12/02 02:41:22;;;;;;;30.15;16.77;;;;;;;;;;5047476;28;20121;-83
2022/12/02 02:43:48;;;;;;;34.97;14.63;;;;;;;;;;5041934;28;20030;-83
2022/12/02 02:46:15;;;;;;;29.95;14.90;;;;;;;;;;5040075;28;20056;-83
2022/12/02 02:48:41;;;;;;;33.15;15.95;;;;;;;;;;5041618;28;20033;-83
2022/12/02 02:51:09;;;;;;;27.08;14.85;;;;;;;;;;5041842;28;20113;-83
2022/12/02 02:53:35;;;;;;;34.00;16.73;;;;;;;;;;5042794;28;20021;-83
2022/12/02 02:56:01;;;;;;;30.60;15.68;;;;;;;;;;5042038;28;20078;-83
2022/12/02 02:58:27;;;;;;;30.60;15.68;;;;;;;;;;5041635;28;20460;-83
2022/12/02 03:00:56;;;;;;;31.30;13.88;;;;;;;;;;5043023;28;20557;-83
2022/12/02 03:03:23;;;;;;;29.88;14.50;;;;;;;;;;5051700;28;20025;-83
2022/12/02 03:05:51;;;;;;;30.20;14.63;;;;;;;;;;5039825;28;20074;-83
2022/12/02 03:08:17;;;;;;;31.95;15.02;;;;;;;;;;5040976;28;20017;-83
2022/12/02 03:10:43;;;;;;;32.42;15.57;;;;;;;;;;5047835;28;20417;-83
2022/12/02 03:13:09;;;;;;;37.55;15.45;;;;;;;;;;5070647;28;20041;-83
2022/12/02 03:15:35;;;;;;;31.48;15.00;;;;;;;;;;5059919;28;20025;-83
2022/12/02 03:18:02;;;;;;;35.97;15.45;;;;;;;;;;5069916;28;20029;-83
2022/12/02 03:20:28;;;;;;;33.78;17.42;;;;;;;;;;5050173;28;20029;-83
2022/12/02 03:22:54;;;;;;;30.05;13.65;;;;;;;;;;5042655;28;20030;-83
2022/12/02 03:25:20;;;;;;;29.98;14.40;;;;;;;;;;5049013;28;20033;-83
2022/12/02 03:27:46;;;;;;;33.88;14.60;;;;;;;;;;5060335;28;20465;-83
2022/12/02 03:30:12;;;;;;;32.50;14.82;;;;;;;;;;5060348;28;20024;-83
2022/12/02 03:32:38;;;;;;;32.85;14.55;;;;;;;;;;5043568;28;20454;-83
2022/12/02 03:35:05;;;;;;;32.17;14.95;;;;;;;;;;5046610;28;20027;-83
2022/12/02 03:37:31;;;;;;;28.70;13.77;;;;;;;;;;5043804;28;20037;-83
2022/12/02 03:39:57;;;;;;;35.63;15.02;;;;;;;;;;5040385;28;20030;-83
2022/12/02 03:42:24;;;;;;;30.05;15.02;;;;;;;;;;5045447;28;20032;-83
2022/12/02 03:44:51;;;;;;;34.13;15.73;;;;;;;;;;5050005;28;20050;-83
2022/12/02 03:47:17;;;;;;;33.65;15.30;;;;;;;;;;5050061;28;20029;-83
2022/12/02 03:49:43;;;;;;;31.90;15.52;;;;;;;;;;5059058;28;20036;-83
2022/12/02 03:52:09;;;;;;;30.67;15.25;;;;;;;;;;5051975;28;20093;-83
2022/12/02 03:54:36;;;;;;;33.35;14.02;;;;;;;;;;5040838;28;20030;-83
2022/12/02 03:57:04;;;;;;;29.15;14.52;;;;;;;;;;5039817;28;20064;-83
2022/12/02 03:59:30;;;;;;;31.83;16.33;;;;;;;;;;5041500;28;20045;-83
2022/12/02 04:01:56;;;;;;;29.40;14.98;;;;;;;;;;5039612;28;20037;-83
2022/12/02 04:04:22;;;;;;;31.70;15.73;;;;;;;;;;5051064;28;20030;-83
2022/12/02 04:06:48;;;;;;;35.13;14.43;;;;;;;;;;5043070;28;20029;-83
2022/12/02 04:09:14;;;;;;;31.75;15.25;;;;;;;;;;5060786;28;20036;-83
2022/12/02 04:11:40;;;;;;;34.85;15.45;;;;;;;;;;5041140;28;20026;-83
2022/12/02 04:14:06;;;;;;;26.27;14.30;;;;;;;;;;5040467;28;20024;-83
2022/12/02 04:16:32;;;;;;;31.02;14.23;;;;;;;;;;5040087;28;20453;-83
2022/12/02 04:18:58;;;;;;;29.65;14.95;;;;;;;;;;5048989;28;20029;-84
2022/12/02 04:21:24;;;;;;;35.70;16.33;;;;;;;;;;5059845;28;20112;-84
2022/12/02 04:23:51;;;;;;;29.40;14.82;;;;;;;;;;5044653;28;20029;-83
2022/12/02 04:26:17;;;;;;;33.22;14.52;;;;;;;;;;5044309;28;20033;-83
2022/12/02 04:28:43;;;;;;;29.15;14.32;;;;;;;;;;5044484;28;20030;-83
2022/12/02 04:31:09;;;;;;;30.10;15.43;;;;;;;;;;5054024;28;20479;-83
2022/12/02 04:33:35;;;;;;;33.13;14.45;;;;;;;;;;5059969;28;20095;-83
2022/12/02 04:36:01;;;;;;;34.47;14.88;;;;;;;;;;5057255;28;20427;-83
2022/12/02 04:38:27;;;;;;;32.15;16.17;;;;;;;;;;5044801;28;20076;-83
2022/12/02 04:40:53;;;;;;;28.85;14.05;;;;;;;;;;5043122;28;20033;-83
2022/12/02 04:43:19;;;;;;;33.95;16.15;;;;;;;;;;5043344;28;20056;-83
2022/12/02 04:45:45;;;;;;;30.25;14.25;;;;;;;;;;5043211;28;20049;-83
2022/12/02 04:48:11;;;;;;;33.17;15.55;;;;;;;;;;5056604;28;20032;-83
2022/12/02 04:50:37;;;;;;;36.13;15.65;;;;;;;;;;5052683;28;20392;-83
2022/12/02 04:53:03;;;;;;;32.53;15.35;;;;;;;;;;5041626;28;20086;-83
2022/12/02 04:55:29;;;;;;;34.00;16.20;;;;;;;;;;5058389;28;20042;-83
2022/12/02 04:57:55;;;;;;;35.55;14.73;;;;;;;;;;5061914;28;20123;-83
2022/12/02 05:00:21;;;;;;;33.05;17.25;;;;;;;;;;5051780;28;20304;-83
2022/12/02 05:02:47;;;;;;;36.00;15.43;;;;;;;;;;5056027;28;20061;-83
2022/12/02 05:05:13;;;;;;;31.67;15.73;;;;;;;;;;5061686;28;20052;-83
2022/12/02 05:07:39;;;;;;;29.65;15.15;;;;;;;;;;5045197;28;20084;-83
2022/12/02 05:10:06;;;;;;;38.45;15.70;;;;;;;;;;5045233;28;20033;-83
2022/12/02 05:12:32;;;;;;;28.75;14.68;;;;;;;;;;5042064;28;20032;-83
2022/12/02 05:14:58;;;;;;;37.10;16.27;;;;;;;;;;5043045;28;20029;-83
2022/12/02 05:17:24;;;;;;;31.23;16.90;;;;;;;;;;5042729;28;20404;-83
2022/12/02 05:19:50;;;;;;;32.13;15.32;;;;;;;;;;5041346;28;20456;-83
2022/12/02 05:22:16;;;;;;;34.72;15.98;;;;;;;;;;5043085;28;20049;-83
2022/12/02 05:24:42;;;;;;;39.08;17.27;;;;;;;;;;5067294;28;20249;-83
2022/12/02 05:27:08;;;;;;;33.35;16.60;;;;;;;;;;5049190;28;20049;-83
2022/12/02 05:29:34;;;;;;;42.58;16.77;;;;;;;;;;5056961;28;20128;-83
2022/12/02 05:32:00;;;;;;;36.40;16.10;;;;;;;;;;5062491;28;20094;-83
2022/12/02 05:34:26;;;;;;;33.70;14.45;;;;;;;;;;5061604;28;20021;-83
2022/12/02 05:36:52;;;;;;;37.75;17.20;;;;;;;;;;5065014;28;20017;-83
2022/12/02 05:39:18;;;;;;;39.53;15.30;;;;;;;;;;5045234;28;20025;-83
2022/12/02 05:41:44;;;;;;;33.65;16.40;;;;;;;;;;5059120;28;20028;-83
2022/12/02 05:44:18;;;;;;;35.13;16.73;;;;;;;;;;5057563;28;20080;-83
2022/12/02 05:46:44;;;;;;;32.35;15.77;;;;;;;;;;5043413;28;20053;-83
2022/12/02 05:49:15;;;;;;;35.92;15.63;;;;;;;;;;5055784;28;20029;-83
2022/12/02 05:51:41;;;;;;;28.45;14.85;;;;;;;;;;5041948;28;20033;-83
2022/12/02 05:54:08;;;;;;;30.38;16.42;;;;;;;;;;5041934;28;20068;-83
2022/12/02 05:56:34;;;;;;;34.85;15.07;;;;;;;;;;5043181;28;20023;-83
2022/12/02 05:59:07;;;;;;;38.40;16.83;;;;;;;;;;5047396;28;20013;-83
2022/12/02 06:01:35;;;;;;;33.67;14.55;;;;;;;;;;5042840;28;20033;-83
2022/12/02 06:04:02;;;;;;;35.78;15.90;;;;;;;;;;5061157;28;20036;-83
2022/12/02 06:06:30;;;;;;;33.35;15.25;;;;;;;;;;5051705;28;20077;-83
2022/12/02 06:08:56;;;;;;;34.58;16.60;;;;;;;;;;5041449;28;20036;-83
2022/12/02 06:11:22;;;;;;;33.47;16.35;;;;;;;;;;5043118;28;20033;-82
2022/12/02 06:13:48;;;;;;;40.42;16.35;;;;;;;;;;5048506;28;20025;-83
2022/12/02 06:16:21;;;;;;;32.00;16.42;;;;;;;;;;5050508;28;20085;-83
2022/12/02 06:18:47;;;;;;;33.13;15.55;;;;;;;;;;5047811;28;20029;-83
2022/12/02 06:21:15;;;;;;;34.08;16.25;;;;;;;;;;5053382;28;20031;-82
2022/12/02 06:23:44;;;;;;;38.97;16.15;;;;;;;;;;5054014;28;20029;-83
2022/12/02 06:26:12;;;;;;;33.95;15.35;;;;;;;;;;5056433;28;20028;-82
2022/12/02 06:28:39;;;;;;;38.38;17.85;;;;;;;;;;5060279;28;20480;-83
2022/12/02 06:31:36;;;;;;;32.90;14.35;;;;;;;;;;5061526;28;20027;-83
2022/12/02 06:34:11;;;;;;;30.90;14.65;;;;;;;;;;4955865;28;20057;-82
2022/12/02 06:36:37;;;;;;;35.13;15.35;;;;;;;;;;4967273;28;20344;-82
2022/12/02 06:39:15;;;;;;;32.50;14.88;;;;;;;;;;4967263;28;20042;-82
2022/12/02 06:41:41;;;;;;;33.63;14.35;;;;;;;;;;4964954;28;20035;-83
2022/12/02 06:47:06;;;;;;;33.38;13.93;;;;;;;;;;4980894;28;20097;-83
2022/12/02 06:49:36;;;;;;;28.27;14.13;;;;;;;;;;4965561;28;20049;-83
2022/12/02 06:52:06;;;;;;;33.85;14.82;;;;;;;;;;4975907;28;20043;-83
2022/12/02 06:54:32;;;;;;;36.88;16.25;;;;;;;;;;4963464;28;20042;-83
2022/12/02 06:57:00;;;;;;;35.83;15.27;;;;;;;;;;4966591;28;20098;-83
2022/12/02 06:59:26;;;;;;;34.45;15.85;;;;;;;;;;4957972;28;20038;-83
2022/12/02 07:01:56;;;;;;;37.95;16.08;;;;;;;;;;4963112;28;20030;-82
2022/12/02 07:04:43;;;;;;;39.53;15.95;;;;;;;;;;4981090;28;20038;-83
2022/12/02 07:07:22;;;;;;;30.02;14.35;;;;;;;;;;4955125;28;20230;-83
2022/12/02 07:09:51;;;;;;;35.70;14.93;;;;;;;;;;4987537;28;20046;-84
2022/12/02 07:12:23;;;;;;;32.78;14.30;;;;;;;;;;5051672;28;20033;-82
2022/12/02 07:14:49;;;;;;;37.65;15.50;;;;;;;;;;5042419;28;20029;-82
2022/12/02 07:17:23;;;;;;;34.60;16.33;;;;;;;;;;5049692;28;20049;-82
2022/12/02 07:20:12;;;;;;;34.42;15.32;;;;;;;;;;5047018;28;20117;-81
2022/12/02 07:22:44;;;;;;;34.80;13.82;;;;;;;;;;5054976;28;20413;-82
2022/12/02 07:25:13;;;;;;;30.73;14.50;;;;;;;;;;5054475;28;20085;-82
2022/12/02 07:27:41;;;;;;;29.65;13.82;;;;;;;;;;5047547;28;20059;-82
2022/12/02 07:30:19;;;;;;;36.08;15.70;;;;;;;;;;5055383;28;20036;-80
2022/12/02 07:32:45;;;;;;;35.88;15.07;;;;;;;;;;5045335;28;20083;-80
2022/12/02 07:35:11;;;;;;;32.22;14.50;;;;;;;;;;5059691;28;20029;-80
2022/12/02 07:37:37;;;;;;;40.08;17.65;;;;;;;;;;5058677;28;20051;-80
2022/12/02 07:40:03;;;;;;;32.05;15.38;;;;;;;;;;5061797;28;20036;-80
2022/12/02 07:42:29;;;;;;;36.58;16.90;;;;;;;;;;5048071;28;20025;-80
2022/12/02 07:44:55;;;;;;;35.95;17.23;;;;;;;;;;5050684;28;20055;-80
2022/12/02 07:47:21;;;;;;;39.30;16.85;;;;;;;;;;5057550;28;20022;-80
2022/12/02 07:49:47;;;;;;;37.35;16.67;;;;;;;;;;5043614;28;20028;-81
2022/12/02 07:52:13;;;;;;;40.47;16.73;;;;;;;;;;5044880;28;20456;-81
2022/12/02 07:54:39;;;;;;;34.83;16.65;;;;;;;;;;5056146;28;20028;-81
2022/12/02 07:57:06;;;;;;;38.85;16.40;;;;;;;;;;5060861;28;20437;-81
2022/12/02 07:59:32;;;;;;;36.00;14.93;;;;;;;;;;5055026;28;20021;-81
2022/12/02 08:01:58;;;;;;;35.92;16.02;;;;;;;;;;5066806;28;20039;-80
2022/12/02 08:04:24;;;;;;;36.03;15.88;;;;;;;;;;5053710;28;20491;-81
2022/12/02 08:06:50;;;;;;;38.65;16.08;;;;;;;;;;5048255;28;20021;-81
2022/12/02 08:09:16;;;;;;;33.90;17.55;;;;;;;;;;5049148;28;20036;-80
2022/12/02 08:11:42;;;;;;;35.42;15.68;;;;;;;;;;5053761;28;20030;-80
2022/12/02 08:14:08;;;;;;;38.58;17.90;;;;;;;;;;5052853;28;20052;-81
2022/12/02 08:16:35;;;;;;;37.60;18.23;;;;;;;;;;5055965;28;20611;-81
2022/12/02 08:19:01;;;;;;;41.15;17.40;;;;;;;;;;5049055;28;20408;-82
2022/12/02 08:21:27;;;;;;;34.53;17.33;;;;;;;;;;5045431;28;20025;-81
2022/12/02 08:23:53;;;;;;;34.15;17.38;;;;;;;;;;5045698;28;20021;-81
2022/12/02 08:26:19;;;;;;;32.17;15.57;;;;;;;;;;5045192;28;20104;-80
2022/12/02 08:28:45;;;;;;;42.28;20.85;;;;;;;;;;5047823;28;20032;-82
2022/12/02 08:31:11;;;;;;;41.95;18.00;;;;;;;;;;5045363;28;20020;-82
2022/12/02 08:33:37;;;;;;;41.00;17.73;;;;;;;;;;5056491;28;20025;-81
2022/12/02 08:36:03;;;;;;;35.17;17.88;;;;;;;;;;5054825;28;20029;-81
2022/12/02 08:38:29;;;;;;;38.85;16.40;;;;;;;;;;5053075;28;20112;-81
2022/12/02 08:40:55;;;;;;;34.33;17.67;;;;;;;;;;5065065;28;20044;-82
2022/12/02 08:43:22;;;;;;;45.00;18.98;;;;;;;;;;5052471;28;20048;-81
2022/12/02 08:45:48;;;;;;;37.50;18.55;;;;;;;;;;5044974;28;20506;-81
2022/12/02 08:48:14;;;;;;;37.67;17.70;;;;;;;;;;5042481;28;20357;-82
2022/12/02 08:50:40;;;;;;;37.25;17.00;;;;;;;;;;5045957;28;20026;-81
2022/12/02 08:53:06;;;;;;;35.03;16.95;;;;;;;;;;5047657;28;20052;-80
2022/12/02 08:55:32;;;;;;;42.42;18.13;;;;;;;;;;5048878;28;20070;-82
2022/12/02 08:57:58;;;;;;;39.42;18.88;;;;;;;;;;5048384;28;20116;-81
2022/12/02 09:00:24;;;;;;;34.20;16.58;;;;;;;;;;5062319;28;20040;-81
2022/12/02 09:02:50;;;;;;;42.03;17.25;;;;;;;;;;5050736;28;20037;-81
2022/12/02 09:05:16;;;;;;;42.45;18.85;;;;;;;;;;5061865;28;20021;-81
2022/12/02 09:07:43;;;;;;;37.67;19.20;;;;;;;;;;5063719;28;20041;-81
2022/12/02 09:10:11;;;;;;;39.85;17.42;;;;;;;;;;5064511;28;20029;-82
2022/12/02 09:12:37;;;;;;;34.97;15.85;;;;;;;;;;5056384;28;20314;-82
2022/12/02 09:15:03;;;;;;;33.65;16.90;;;;;;;;;;5066931;28;20028;-81
2022/12/02 09:17:29;;;;;;;39.33;17.45;;;;;;;;;;5051554;28;20026;-83
2022/12/02 09:19:55;;;;;;;35.78;18.17;;;;;;;;;;5046355;28;20021;-81
2022/12/02 09:22:21;;;;;;;37.80;17.85;;;;;;;;;;5044489;28;20026;-83
2022/12/02 09:24:47;;;;;;;35.40;17.73;;;;;;;;;;5056956;28;20029;-82
2022/12/02 09:27:14;;;;;;;39.20;18.58;;;;;;;;;;5062921;28;20025;-82
2022/12/02 09:29:40;;;;;;;40.97;19.15;;;;;;;;;;5049943;28;20025;-82
2022/12/02 09:32:06;;;;;;;38.33;18.08;;;;;;;;;;5042961;28;20025;-83
2022/12/02 09:34:32;;;;;;;37.67;18.85;;;;;;;;;;5043935;28;20091;-82
2022/12/02 09:36:58;;;;;;;37.20;17.20;;;;;;;;;;5043868;28;20025;-83
2022/12/02 09:39:24;;;;;;;36.67;18.17;;;;;;;;;;5045387;28;20021;-82
2022/12/02 09:41:50;;;;;;;38.97;19.35;;;;;;;;;;5057427;28;20104;-82
2022/12/02 09:44:16;;;;;;;44.10;19.42;;;;;;;;;;5058142;28;20036;-82
2022/12/02 09:46:42;;;;;;;42.53;18.35;;;;;;;;;;5053506;28;20092;-82
2022/12/02 09:49:08;;;;;;;44.10;19.40;;;;;;;;;;5055216;28;20060;-82
2022/12/02 09:51:34;;;;;;;40.45;18.75;;;;;;;;;;5043517;28;20025;-82
2022/12/02 09:54:00;;;;;;;41.42;19.20;;;;;;;;;;5045203;28;20092;-82
2022/12/02 09:56:26;;;;;;;37.22;17.13;;;;;;;;;;5045153;28;20017;-82
2022/12/02 09:58:54;;;;;;;44.90;18.35;;;;;;;;;;5047301;28;20032;-82
2022/12/02 10:01:20;;;;;;;40.42;18.40;;;;;;;;;;5063097;28;20040;-83
2022/12/02 10:03:48;;;;;;;42.95;20.63;;;;;;;;;;5053406;28;20453;-83
2022/12/02 10:06:25;;;;;;;36.35;18.23;;;;;;;;;;5044253;28;20077;-83
2022/12/02 10:08:52;;;;;;;36.88;17.15;;;;;;;;;;5044778;28;20514;-82
2022/12/02 10:11:22;;;;;;;40.03;18.83;;;;;;;;;;5056431;28;20034;-82
2022/12/02 10:13:49;;;;;;;41.08;18.55;;;;;;;;;;5058393;28;20116;-83
2022/12/02 10:16:15;;;;;;;42.90;18.52;;;;;;;;;;5060502;28;20442;-82
2022/12/02 10:18:41;;;;;;;42.55;19.38;;;;;;;;;;5043589;28;20029;-83
2022/12/02 10:21:07;;;;;;;37.70;19.55;;;;;;;;;;5042803;28;20017;-83
2022/12/02 10:23:51;;;;;;;40.25;19.42;;;;;;;;;;5043842;28;20097;-83
2022/12/02 10:26:17;;;;;;;36.40;17.30;;;;;;;;;;5048782;28;20021;-83
2022/12/02 10:28:57;;;;;;;40.33;20.80;;;;;;;;;;5043329;28;20414;-83
2022/12/02 10:31:23;;;;;;;40.83;17.48;;;;;;;;;;5048971;28;20107;-84
2022/12/02 10:33:53;;;;;;;45.83;19.02;;;;;;;;;;5044674;28;20053;-83
2022/12/02 10:36:37;;;;;;;49.55;22.38;;;;;;;;;;5060758;28;20035;-83
2022/12/02 10:39:23;;;;;;;34.78;15.95;;;;;;;;;;5052028;28;20442;-83
2022/12/02 10:42:12;;;;;;;43.30;18.65;;;;;;;;;;5061537;28;20444;-83
2022/12/02 10:44:41;;;;;;;43.40;18.42;;;;;;;;;;5061065;28;20052;-83
2022/12/02 10:47:11;;;;;;;43.85;20.27;;;;;;;;;;5056636;28;20490;-84
2022/12/02 10:49:37;;;;;;;40.60;18.45;;;;;;;;;;5057881;28;20025;-83
2022/12/02 10:52:07;;;;;;;41.40;18.65;;;;;;;;;;5041605;28;20514;-84
2022/12/02 10:54:33;;;;;;;44.90;20.85;;;;;;;;;;5041412;28;20025;-84
2022/12/02 10:57:00;;;;;;;39.92;18.33;;;;;;;;;;5050601;28;20056;-82
2022/12/02 10:59:27;;;;;;;42.17;20.27;;;;;;;;;;5048569;28;20040;-83
2022/12/02 11:01:53;;;;;;;39.85;17.80;;;;;;;;;;5048655;28;20029;-84
2022/12/02 11:04:19;;;;;;;39.95;19.63;;;;;;;;;;5053189;28;20079;-84
2022/12/02 11:06:46;;;;;;;41.00;19.73;;;;;;;;;;5046105;28;20037;-84
2022/12/02 11:09:17;;;;;;;40.08;19.33;;;;;;;;;;5049134;28;20022;-83
2022/12/02 11:11:43;;;;;;;39.97;18.27;;;;;;;;;;5051160;28;20052;-84
2022/12/02 11:14:11;;;;;;;46.97;20.50;;;;;;;;;;5044231;28;20029;-83
2022/12/02 11:16:37;;;;;;;41.42;18.63;;;;;;;;;;5047289;28;20032;-83
2022/12/02 11:19:23;;;;;;;39.25;20.17;;;;;;;;;;5062042;28;20371;-83
2022/12/02 11:21:49;;;;;;;48.45;20.90;;;;;;;;;;5060236;28;20025;-82
2022/12/02 11:24:30;;;;;;;41.75;21.15;;;;;;;;;;5056940;28;20041;-83
2022/12/02 11:27:03;;;;;;;42.03;19.48;;;;;;;;;;5048416;28;20059;-83
2022/12/02 11:29:30;;;;;;;41.30;19.65;;;;;;;;;;5053036;28;20026;-82
2022/12/02 11:32:00;;;;;;;42.33;19.17;;;;;;;;;;5048365;28;20040;-82
2022/12/02 11:34:39;;;;;;;41.97;20.85;;;;;;;;;;5070903;28;20021;-82
2022/12/02 11:37:24;;;;;;;38.33;20.30;;;;;;;;;;5055943;28;20021;-85
2022/12/02 11:39:50;;;;;;;40.22;17.90;;;;;;;;;;5065621;28;20107;-82
2022/12/02 11:42:22;;;;;;;44.47;21.20;;;;;;;;;;5079029;28;20040;-82
2022/12/02 11:44:48;;;;;;;47.00;21.65;;;;;;;;;;5064363;28;20108;-82
2022/12/02 11:47:25;;;;;;;41.55;20.73;;;;;;;;;;5060558;28;20059;-82
2022/12/02 11:49:52;;;;;;;50.15;22.38;;;;;;;;;;5055363;28;20039;-82
2022/12/02 11:52:20;;;;;;;50.10;22.23;;;;;;;;;;5077232;28;20063;-83
2022/12/02 11:54:46;;;;;;;46.15;21.02;;;;;;;;;;5053892;28;20032;-82
2022/12/02 11:57:27;;;;;;;49.15;23.13;;;;;;;;;;5053398;28;20029;-82
2022/12/02 11:59:53;;;;;;;47.60;21.80;;;;;;;;;;5060295;28;20024;-82
2022/12/02 12:02:21;;;;;;;44.80;22.98;;;;;;;;;;5059574;28;20049;-82
2022/12/02 12:04:58;;;;;;;44.50;21.73;;;;;;;;;;5044888;28;20617;-83
2022/12/02 12:07:24;;;;;;;42.50;21.88;;;;;;;;;;5051660;28;20085;-82
2022/12/02 12:09:56;;;;;;;51.28;24.98;;;;;;;;;;5050096;28;20068;-84
2022/12/02 12:12:22;;;;;;;46.00;21.45;;;;;;;;;;5063736;28;20131;-82
2022/12/02 12:14:55;;;;;;;51.67;23.92;;;;;;;;;;5061084;28;20633;-83
2022/12/02 12:17:42;;;;;;;48.72;24.38;;;;;;;;;;5050437;28;20456;-82
2022/12/02 12:20:14;;;;;;;49.92;24.15;;;;;;;;;;5061788;28;20021;-83
2022/12/02 12:22:40;;;;;;;44.45;23.27;;;;;;;;;;5062615;28;20108;-83
2022/12/02 12:25:25;;;;;;;48.15;22.65;;;;;;;;;;5054422;28;20411;-83
2022/12/02 12:27:51;;;;;;;51.60;23.75;;;;;;;;;;5055016;28;20103;-84
2022/12/02 12:30:17;;;;;;;48.80;24.52;;;;;;;;;;5044764;28;20483;-83
2022/12/02 12:32:43;;;;;;;48.28;23.60;;;;;;;;;;5040077;28;20040;-84
2022/12/02 12:35:09;;;;;;;49.97;26.23;;;;;;;;;;5042511;28;20394;-83
2022/12/02 12:37:35;;;;;;;55.10;26.08;;;;;;;;;;5051115;28;20025;-84
2022/12/02 12:40:01;;;;;;;55.05;26.70;;;;;;;;;;5045095;28;20021;-84
2022/12/02 12:42:27;;;;;;;53.00;27.25;;;;;;;;;;5039116;28;20084;-84
2022/12/02 12:44:53;;;;;;;56.45;27.38;;;;;;;;;;5038322;28;20060;-83
2022/12/02 12:47:19;;;;;;;52.95;25.92;;;;;;;;;;5046551;28;20036;-84
2022/12/02 12:49:45;;;;;;;47.30;26.95;;;;;;;;;;5058311;28;20021;-84
2022/12/02 12:52:11;;;;;;;57.88;27.30;;;;;;;;;;5059964;28;20036;-83
2022/12/02 12:54:37;;;;;;;54.65;26.00;;;;;;;;;;5055085;28;20029;-84
2022/12/02 12:57:03;;;;;;;53.47;24.98;;;;;;;;;;5062346;28;20070;-83
2022/12/02 12:59:29;;;;;;;48.20;25.02;;;;;;;;;;5068765;28;20017;-83
2022/12/02 13:01:55;;;;;;;54.78;26.95;;;;;;;;;;5058623;28;20177;-84
2022/12/02 13:04:21;;;;;;;52.13;26.05;;;;;;;;;;5047251;28;20036;-83
2022/12/02 13:06:47;;;;;;;53.67;28.05;;;;;;;;;;5045821;28;20079;-84
2022/12/02 13:09:14;;;;;;;50.97;25.35;;;;;;;;;;5057838;28;20068;-83
2022/12/02 13:11:40;;;;;;;55.38;27.30;;;;;;;;;;5058804;28;20488;-84
2022/12/02 13:14:06;;;;;;;50.35;24.40;;;;;;;;;;5042767;28;20091;-82
2022/12/02 13:16:32;;;;;;;59.50;27.60;;;;;;;;;;5047010;28;20070;-83
2022/12/02 13:18:58;;;;;;;56.42;26.90;;;;;;;;;;5050079;28;20034;-83
2022/12/02 13:21:24;;;;;;;60.47;29.40;;;;;;;;;;5044779;28;20028;-84
2022/12/02 13:23:50;;;;;;;74.50;35.70;;;;;;;;;;5059286;28;20041;-83
2022/12/02 13:26:16;;;;;;;54.22;29.33;;;;;;;;;;5056838;28;20063;-83
2022/12/02 13:28:42;;;;;;;68.93;32.78;;;;;;;;;;5050898;28;20084;-83
2022/12/02 13:31:08;;;;;;;61.42;32.63;;;;;;;;;;5039776;28;20057;-83
2022/12/02 13:33:34;;;;;;;66.95;31.77;;;;;;;;;;5040416;28;20249;-83
2022/12/02 13:36:00;;;;;;;60.85;29.77;;;;;;;;;;5039625;28;20025;-83
2022/12/02 13:38:26;;;;;;;65.95;28.17;;;;;;;;;;5038134;28;20022;-84
2022/12/02 13:40:52;;;;;;;53.13;26.60;;;;;;;;;;5047683;28;20448;-83
2022/12/02 13:43:18;;;;;;;55.30;28.13;;;;;;;;;;5052233;28;20072;-84
2022/12/02 13:45:44;;;;;;;63.90;31.38;;;;;;;;;;5048858;28;20088;-82
2022/12/02 13:48:10;;;;;;;56.42;26.70;;;;;;;;;;5059113;28;20345;-83
2022/12/02 13:50:36;;;;;;;57.65;27.05;;;;;;;;;;5056658;28;20063;-84
2022/12/02 13:53:02;;;;;;;55.97;27.10;;;;;;;;;;5052615;28;20084;-87
2022/12/02 13:55:28;;;;;;;49.65;25.65;;;;;;;;;;5059278;28;20029;-82
2022/12/02 13:57:55;;;;;;;53.08;24.75;;;;;;;;;;5042665;28;20193;-84
2022/12/02 14:00:21;;;;;;;48.05;25.77;;;;;;;;;;5049849;28;20521;-83
2022/12/02 14:02:47;;;;;;;43.60;24.90;;;;;;;;;;5061421;28;20035;-82
2022/12/02 14:05:13;;;;;;;47.70;25.95;;;;;;;;;;5060735;28;20063;-83
2022/12/02 14:07:39;;;;;;;54.03;23.80;;;;;;;;;;5063173;28;20123;-80
2022/12/02 14:10:05;;;;;;;47.20;22.02;;;;;;;;;;5046210;28;20025;-83
2022/12/02 14:12:31;;;;;;;48.25;25.10;;;;;;;;;;5054828;28;20044;-81
2022/12/02 14:14:57;;;;;;;47.42;26.42;;;;;;;;;;5064228;28;20033;-82
2022/12/02 14:17:23;;;;;;;46.75;23.77;;;;;;;;;;5064659;28;20025;-82
2022/12/02 14:19:49;;;;;;;48.03;22.77;;;;;;;;;;5061149;28;20628;-82
2022/12/02 14:22:17;;;;;;;46.25;24.70;;;;;;;;;;5063628;28;20251;-82
2022/12/02 14:24:43;;;;;;;47.60;23.02;;;;;;;;;;5055293;28;20415;-82